Ana Sayfa
METAR-TAF:

METAR-TAF

Havaalanları :

Page, Arizona, Amerika Birleşik Devletleri

Enlem: 36-55-14N, Boylam: 111-26-53W, yükseklik: 1314 m

Güncel hava durumu gözlemi

Rapor saat 16:53 UTC de 57 dakika önce yapıldı.
Rüzgar değişken yönden 3 kt
Sıcaklık 27°C
Nem 23%
Basınç 1022 hPa
Görüş mesafesi: 16.1 km
Açık gökyüzü

METAR: KPGA 221653Z AUTO VRB03KT 10SM CLR 27/04 A3019 RMK AO2 SLP155 T02670039 TSNO

Saat: 10:50 (17:50 UTC)

Tahmin

Rapor saat 17:20 UTC de 30 dakika önce yapıldı.
Ayın 22'si saat 18 UTC'den ayın 23'si saat 18 UTC'ye kadar geçerli Tahmin
Rüzgar değişken yönden 5 kt
Görüş mesafesi: 10 km
11000 ft yükseklikte parçalı bulutlu
Civarda sağanaklar
Ayın 23'si saat 0100 UTC'den
Rüzgar değişken yönden 5 kt
Görüş mesafesi: 10 km
12000 ft yükseklikte az bulutlu

TAF: KPGA 221720Z 2218/2318 VRB05KT P6SM VCSH SCT110 FM230100 VRB05KT P6SM FEW120

4.000'den fazla havaalanı için hava durumu gözlemleri ve tahminleri (METAR ve TAF raporları).

Kullanılabilir istasyonlar harita üzerinde sarı ve kırmızı noktalarla gösterilir.

İstasyonun adını görmek için fareyi noktanın üzerinde gezdirin.

Sonrasında hava gözlem ve tahminlerini görmek için tıklayın.

Haritayı değiştirmek için: yaklaştırmak için siyah artı işaretli yeşil düğmeye ve uzaklaştırmak için de eksi işaretli düğmeye hızla tıklayın; bitişik haritalar için yeşil okları kullanın.


METAR-TAF: